Portada
METAR-TAF:

METAR-TAF

Aeroports :

Cobb County Airport (McCollum Field)

Atlanta-Kennesaw, Geòrgia, Estats Units d'Amèrica

latitud: 34-00-47N, longitud: 084-35-55W, altitud: 317 m

Observació

L'informe es va fer fa 12 minuts, a les 15:50 UTC
Vent calma
Temperatura 27°C
Humitat 54%
Pressió 1018 hPa
Visibilitat: 16.1 km
Cel clar

METAR: KRYY 301550Z 00000KT 10SM CLR 27/17 A3007 RMK AO2 SLP903 T02670172 PNO $

Hora: 12:02 (16:02 UTC)

Pronòstic

L'informe es va fer fa 4 hores i 37 minuts, a les 11:25 UTC
Pronòstic vàlid del 30 a les 12 UTC al 31 a les 12 UTC
Vent 4 kt del Oest
Visibilitat: 10 km
Escasses núvols a una alçada de 25000 ft
A partir de les 30 a les 1500 UTC
Vent 10 kt del Nord-Oest
Visibilitat: 10 km
Núvols disperses a una alçada de 5000 ft
A partir de les 31 a les 0000 UTC
Vent 5 kt del Nord
Visibilitat: 10 km
Escasses núvols a una alçada de 25000 ft

TAF: KRYY 301125Z 3012/3112 27004KT P6SM FEW250 FM301500 32010KT P6SM SCT050 FM310000 35005KT P6SM FEW250

Observacions i pronòstics meteorològics de més de 4000 aeroports (METAR i TAF).

Les estacions disponibles són els punts grocs i vermells al mapa.

Posi el ratolí al punt desitjat per veure el nom de l'estació.

Feu clic per veure les observacions i els pronòstics meteorològics.

Per canviar el mapa: feu clic els botons verds amb una creu de color negre per apropar; al botó verd amb un guió per allunyar la imatge; o en les fletxes verdes per a mapes adjacents.


METAR-TAF: